Time;durP1;ratioP1;P1;durP2;ratioP2;P2;SDS_P1;SDS_P2;PMS_P1;PMS_P2;Temp;Humidity;BMP_temperature;BMP_pressure;BME280_temperature;BME280_humidity;BME280_pressure;Samples;Min_cycle;Max_cycle;Signal;HPM_P1;HPM_P2
2023/08/27 00:01:58;;;;;;;11.52;6.53;;;;;;;;;;5004625;28;20633;-80
2023/08/27 00:04:25;;;;;;;10.70;6.28;;;;;;;;;;5010775;28;20046;-79
2023/08/27 00:06:52;;;;;;;11.60;6.78;;;;;;;;;;5003237;28;20046;-77
2023/08/27 00:09:18;;;;;;;13.13;6.35;;;;;;;;;;5028635;28;20132;-78
2023/08/27 00:11:45;;;;;;;13.23;7.20;;;;;;;;;;5010567;28;20066;-79
2023/08/27 00:14:12;;;;;;;12.73;6.90;;;;;;;;;;5023120;28;20049;-80
2023/08/27 00:16:41;;;;;;;9.95;5.97;;;;;;;;;;5009973;28;20104;-79
2023/08/27 00:19:08;;;;;;;8.07;5.85;;;;;;;;;;4983721;28;20148;-80
2023/08/27 00:21:35;;;;;;;11.65;6.40;;;;;;;;;;5025089;28;20470;-79
2023/08/27 00:24:04;;;;;;;8.98;6.05;;;;;;;;;;5004250;28;20046;-80
2023/08/27 00:26:31;;;;;;;11.35;5.57;;;;;;;;;;5000515;28;20057;-79
2023/08/27 00:29:03;;;;;;;11.90;5.85;;;;;;;;;;4996746;28;20092;-80
2023/08/27 00:31:30;;;;;;;11.27;4.82;;;;;;;;;;4995449;28;20050;-78
2023/08/27 00:33:59;;;;;;;9.10;5.20;;;;;;;;;;5024639;28;20049;-79
2023/08/27 00:36:26;;;;;;;10.43;5.10;;;;;;;;;;5006613;28;20050;-78
2023/08/27 00:38:58;;;;;;;12.18;5.03;;;;;;;;;;5010688;28;20037;-79
2023/08/27 00:41:25;;;;;;;9.55;4.82;;;;;;;;;;5004369;28;20046;-78
2023/08/27 00:43:52;;;;;;;10.88;4.93;;;;;;;;;;4994003;28;20112;-79
2023/08/27 00:46:22;;;;;;;9.05;4.72;;;;;;;;;;5009676;28;20049;-78
2023/08/27 00:48:51;;;;;;;9.43;5.65;;;;;;;;;;4970701;28;20034;-78
2023/08/27 00:51:18;;;;;;;11.63;6.10;;;;;;;;;;4986490;28;20081;-79
2023/08/27 00:53:45;;;;;;;13.27;6.60;;;;;;;;;;4985655;28;20237;-79
2023/08/27 00:56:11;;;;;;;13.25;6.47;;;;;;;;;;4995877;28;20049;-79
2023/08/27 00:58:39;;;;;;;8.65;5.72;;;;;;;;;;4995389;28;20057;-79
2023/08/27 01:01:06;;;;;;;15.05;6.45;;;;;;;;;;4995398;28;20049;-77
2023/08/27 01:03:35;;;;;;;9.25;6.25;;;;;;;;;;4996919;28;20528;-78
2023/08/27 01:06:02;;;;;;;9.77;6.40;;;;;;;;;;4980183;28;20056;-79
2023/08/27 01:08:48;;;;;;;9.50;6.45;;;;;;;;;;4990517;28;20479;-79
2023/08/27 01:11:15;;;;;;;10.43;5.78;;;;;;;;;;5001117;28;20061;-79
2023/08/27 01:13:48;;;;;;;9.32;6.60;;;;;;;;;;5000105;28;20046;-79
2023/08/27 01:16:19;;;;;;;11.10;6.38;;;;;;;;;;4985258;28;20550;-78
2023/08/27 01:18:47;;;;;;;12.30;6.53;;;;;;;;;;4990804;28;20074;-77
2023/08/27 01:21:23;;;;;;;13.75;7.10;;;;;;;;;;4990088;28;20512;-79
2023/08/27 01:23:51;;;;;;;13.00;7.55;;;;;;;;;;5009772;28;20046;-77
2023/08/27 01:26:32;;;;;;;13.88;6.88;;;;;;;;;;5006586;28;20045;-79
2023/08/27 01:29:08;;;;;;;9.80;6.68;;;;;;;;;;5011386;28;20056;-79
2023/08/27 01:31:39;;;;;;;16.17;7.00;;;;;;;;;;5027228;28;20049;-79
2023/08/27 01:34:08;;;;;;;10.30;6.68;;;;;;;;;;4995769;28;20053;-78
2023/08/27 01:36:35;;;;;;;13.07;6.78;;;;;;;;;;5011724;28;20057;-79
2023/08/27 01:39:04;;;;;;;11.25;6.38;;;;;;;;;;5009829;28;20069;-78
2023/08/27 01:41:30;;;;;;;10.15;6.45;;;;;;;;;;5011946;28;20460;-79
2023/08/27 01:43:57;;;;;;;13.98;6.55;;;;;;;;;;5004744;28;20133;-79
2023/08/27 01:46:24;;;;;;;15.27;5.75;;;;;;;;;;5013210;28;20076;-79
2023/08/27 01:48:51;;;;;;;9.18;6.25;;;;;;;;;;5015649;28;20108;-80
2023/08/27 01:51:17;;;;;;;11.70;6.53;;;;;;;;;;5009198;28;20050;-78
2023/08/27 01:53:44;;;;;;;13.25;6.20;;;;;;;;;;5012332;28;20132;-78
2023/08/27 01:56:11;;;;;;;11.57;6.38;;;;;;;;;;4995977;28;20439;-79
2023/08/27 01:58:37;;;;;;;14.50;6.93;;;;;;;;;;5004832;28;20046;-79
2023/08/27 02:01:04;;;;;;;10.30;6.90;;;;;;;;;;4994009;28;20069;-78
2023/08/27 02:03:31;;;;;;;10.07;6.53;;;;;;;;;;5011061;28;20076;-79
2023/08/27 02:05:57;;;;;;;12.57;6.70;;;;;;;;;;4997249;28;20065;-78
2023/08/27 02:08:24;;;;;;;16.50;7.05;;;;;;;;;;4979772;28;20069;-79
2023/08/27 02:10:51;;;;;;;11.63;7.13;;;;;;;;;;5011159;28;20065;-78
2023/08/27 02:13:17;;;;;;;12.38;7.18;;;;;;;;;;5025349;28;20043;-79
2023/08/27 02:15:44;;;;;;;10.73;6.78;;;;;;;;;;5008505;28;20306;-78
2023/08/27 02:18:11;;;;;;;11.68;6.43;;;;;;;;;;5005847;28;20045;-79
2023/08/27 02:20:38;;;;;;;12.02;6.60;;;;;;;;;;5011069;28;20045;-80
2023/08/27 02:23:04;;;;;;;11.43;6.55;;;;;;;;;;5010613;28;20474;-78
2023/08/27 02:25:31;;;;;;;12.50;7.00;;;;;;;;;;5012062;28;20072;-79
2023/08/27 02:27:58;;;;;;;13.20;6.90;;;;;;;;;;4994003;28;20117;-79
2023/08/27 02:30:24;;;;;;;10.23;6.68;;;;;;;;;;5010199;28;20096;-79
2023/08/27 02:32:52;;;;;;;10.18;6.07;;;;;;;;;;5026398;28;20046;-78
2023/08/27 02:35:19;;;;;;;10.55;6.25;;;;;;;;;;4999588;28;20035;-78
2023/08/27 02:37:46;;;;;;;13.45;7.32;;;;;;;;;;5007522;28;20050;-79
2023/08/27 02:40:17;;;;;;;13.75;6.72;;;;;;;;;;5012009;28;20085;-79
2023/08/27 02:42:44;;;;;;;13.98;6.90;;;;;;;;;;5012602;28;20389;-77
2023/08/27 02:45:10;;;;;;;10.52;6.18;;;;;;;;;;4993018;28;20053;-80
2023/08/27 02:47:37;;;;;;;10.05;6.18;;;;;;;;;;5011241;28;20053;-79
2023/08/27 02:50:10;;;;;;;13.32;6.35;;;;;;;;;;5009633;28;20167;-79
2023/08/27 02:52:37;;;;;;;11.00;6.55;;;;;;;;;;5004086;28;20269;-80
2023/08/27 02:55:04;;;;;;;14.40;6.88;;;;;;;;;;5003174;28;20038;-79
2023/08/27 02:57:30;;;;;;;10.90;6.43;;;;;;;;;;5011374;28;20420;-80
2023/08/27 02:59:57;;;;;;;10.05;6.65;;;;;;;;;;4993750;28;20050;-80
2023/08/27 03:02:26;;;;;;;10.30;6.95;;;;;;;;;;5010921;28;20592;-80
2023/08/27 03:04:52;;;;;;;11.38;7.13;;;;;;;;;;5011155;28;20033;-79
2023/08/27 03:07:19;;;;;;;10.90;6.30;;;;;;;;;;4994016;28;20112;-80
2023/08/27 03:09:46;;;;;;;15.73;7.78;;;;;;;;;;5009955;28;20045;-79
2023/08/27 03:12:17;;;;;;;11.07;6.53;;;;;;;;;;5026927;28;20042;-80
2023/08/27 03:14:44;;;;;;;14.25;7.18;;;;;;;;;;5012836;28;20080;-80
2023/08/27 03:17:10;;;;;;;11.90;6.35;;;;;;;;;;5008987;28;20832;-79
2023/08/27 03:19:37;;;;;;;10.75;6.90;;;;;;;;;;5011533;28;20068;-79
2023/08/27 03:22:03;;;;;;;11.18;6.75;;;;;;;;;;5003888;28;20050;-78
2023/08/27 03:24:30;;;;;;;13.63;6.63;;;;;;;;;;5007797;28;20042;-80
2023/08/27 03:26:57;;;;;;;10.95;6.90;;;;;;;;;;5010663;28;20049;-79
2023/08/27 03:29:24;;;;;;;12.27;6.55;;;;;;;;;;5009398;28;20050;-79
2023/08/27 03:31:51;;;;;;;10.98;6.28;;;;;;;;;;5004109;28;20053;-78
2023/08/27 03:34:18;;;;;;;14.30;6.50;;;;;;;;;;4986796;28;20068;-80
2023/08/27 03:36:45;;;;;;;14.48;6.97;;;;;;;;;;5004373;28;20046;-80
2023/08/27 03:39:11;;;;;;;14.63;6.70;;;;;;;;;;5006572;28;20049;-79
2023/08/27 03:41:38;;;;;;;10.32;6.65;;;;;;;;;;5007871;28;20100;-80
2023/08/27 03:44:05;;;;;;;13.88;7.07;;;;;;;;;;5024757;28;20118;-80
2023/08/27 03:46:32;;;;;;;12.10;6.63;;;;;;;;;;5004063;28;20108;-80
2023/08/27 03:49:00;;;;;;;12.07;6.60;;;;;;;;;;5008862;28;20072;-80
2023/08/27 03:51:28;;;;;;;8.05;5.90;;;;;;;;;;4999715;28;20301;-80
2023/08/27 03:53:55;;;;;;;11.00;6.13;;;;;;;;;;4992744;28;20092;-79
2023/08/27 03:56:22;;;;;;;14.15;6.03;;;;;;;;;;5013603;28;20335;-80
2023/08/27 03:58:48;;;;;;;11.00;6.40;;;;;;;;;;5012963;28;20069;-80
2023/08/27 04:01:15;;;;;;;10.35;6.15;;;;;;;;;;5021799;28;20065;-78
2023/08/27 04:03:45;;;;;;;9.77;6.65;;;;;;;;;;5025339;28;20038;-78
2023/08/27 04:06:11;;;;;;;13.07;6.28;;;;;;;;;;5030992;28;20049;-78
2023/08/27 04:08:38;;;;;;;11.25;6.80;;;;;;;;;;5016828;28;20061;-79
2023/08/27 04:11:05;;;;;;;12.50;6.43;;;;;;;;;;5027413;28;20084;-77
2023/08/27 04:13:31;;;;;;;12.15;7.07;;;;;;;;;;5025065;28;20054;-79
2023/08/27 04:15:59;;;;;;;14.73;7.43;;;;;;;;;;5033319;28;20053;-79
2023/08/27 04:18:27;;;;;;;16.23;7.10;;;;;;;;;;5008779;28;20054;-79
2023/08/27 04:20:56;;;;;;;12.05;7.13;;;;;;;;;;5007627;28;20345;-79
2023/08/27 04:23:27;;;;;;;11.73;7.07;;;;;;;;;;5007660;28;20047;-80
2023/08/27 04:25:54;;;;;;;11.35;6.50;;;;;;;;;;5017437;28;20042;-79
2023/08/27 04:28:20;;;;;;;14.27;6.68;;;;;;;;;;4999953;28;20034;-80
2023/08/27 04:30:48;;;;;;;11.50;6.38;;;;;;;;;;5013172;28;20052;-79
2023/08/27 04:33:15;;;;;;;13.43;6.63;;;;;;;;;;5000999;28;20077;-79
2023/08/27 04:35:44;;;;;;;17.10;6.57;;;;;;;;;;5008955;28;20041;-79
2023/08/27 04:38:13;;;;;;;11.52;6.50;;;;;;;;;;5011598;28;21119;-80
2023/08/27 04:40:42;;;;;;;11.18;6.85;;;;;;;;;;4995060;28;20054;-78
2023/08/27 04:43:08;;;;;;;13.25;6.10;;;;;;;;;;4988000;28;20049;-79
2023/08/27 04:45:35;;;;;;;10.85;6.90;;;;;;;;;;4995702;28;20054;-79
2023/08/27 04:48:03;;;;;;;12.93;6.90;;;;;;;;;;4988026;28;20045;-79
2023/08/27 04:50:30;;;;;;;9.50;6.25;;;;;;;;;;5004115;28;20058;-80
2023/08/27 04:52:56;;;;;;;11.00;6.57;;;;;;;;;;4987515;28;20128;-80
2023/08/27 04:55:24;;;;;;;14.35;6.57;;;;;;;;;;4981267;28;20411;-80
2023/08/27 04:57:52;;;;;;;14.70;6.72;;;;;;;;;;4986498;28;20104;-79
2023/08/27 05:00:21;;;;;;;10.38;6.47;;;;;;;;;;5000862;28;20137;-79
2023/08/27 05:02:49;;;;;;;10.38;6.63;;;;;;;;;;4993516;28;20054;-79
2023/08/27 05:05:17;;;;;;;9.85;6.57;;;;;;;;;;5011505;28;20113;-79
2023/08/27 05:07:44;;;;;;;11.43;6.57;;;;;;;;;;4992146;28;22836;-79
2023/08/27 05:10:11;;;;;;;9.00;6.10;;;;;;;;;;4995603;28;20053;-78
2023/08/27 05:12:38;;;;;;;11.95;6.43;;;;;;;;;;4979643;28;20045;-81
2023/08/27 05:15:06;;;;;;;13.02;6.53;;;;;;;;;;4987130;28;20057;-80
2023/08/27 05:17:33;;;;;;;10.77;6.85;;;;;;;;;;4995897;28;20935;-79
2023/08/27 05:20:00;;;;;;;13.13;6.50;;;;;;;;;;5011257;28;20050;-79
2023/08/27 05:22:27;;;;;;;10.15;6.43;;;;;;;;;;5006323;28;20058;-80
2023/08/27 05:24:53;;;;;;;12.23;6.75;;;;;;;;;;5011323;28;20049;-78
2023/08/27 05:27:21;;;;;;;14.75;7.43;;;;;;;;;;5017110;28;20118;-80
2023/08/27 05:29:47;;;;;;;11.50;6.72;;;;;;;;;;5030267;28;20041;-79
2023/08/27 05:32:14;;;;;;;14.82;6.75;;;;;;;;;;5002726;28;20049;-79
2023/08/27 05:34:41;;;;;;;14.88;6.80;;;;;;;;;;5018025;28;20054;-80
2023/08/27 05:37:07;;;;;;;9.85;6.53;;;;;;;;;;5005619;28;20125;-81
2023/08/27 05:39:34;;;;;;;12.52;6.85;;;;;;;;;;5005470;28;20038;-81
2023/08/27 05:42:01;;;;;;;10.05;6.93;;;;;;;;;;5006634;28;20061;-79
2023/08/27 05:44:28;;;;;;;13.43;7.07;;;;;;;;;;5007827;28;20030;-80
2023/08/27 05:46:55;;;;;;;13.85;6.75;;;;;;;;;;5022694;28;20052;-79
2023/08/27 05:49:23;;;;;;;11.63;7.10;;;;;;;;;;5010361;28;20057;-80
2023/08/27 05:51:50;;;;;;;14.80;6.82;;;;;;;;;;5008744;28;20042;-80
2023/08/27 05:54:17;;;;;;;10.07;6.60;;;;;;;;;;5022985;28;20111;-81
2023/08/27 05:56:43;;;;;;;11.18;6.90;;;;;;;;;;5010156;28;20053;-79
2023/08/27 05:59:13;;;;;;;10.68;6.97;;;;;;;;;;5023187;28;20045;-81
2023/08/27 06:01:41;;;;;;;10.60;6.93;;;;;;;;;;5011215;28;20045;-80
2023/08/27 06:04:09;;;;;;;10.10;6.30;;;;;;;;;;5014207;28;20520;-80
2023/08/27 06:06:37;;;;;;;11.18;5.90;;;;;;;;;;5008488;28;20081;-80
2023/08/27 06:09:03;;;;;;;8.38;5.38;;;;;;;;;;5011225;28;20423;-80
2023/08/27 06:11:30;;;;;;;8.32;5.20;;;;;;;;;;5013520;28;20046;-81
2023/08/27 06:13:57;;;;;;;9.10;5.47;;;;;;;;;;5013051;28;20064;-82
2023/08/27 06:16:23;;;;;;;22.85;10.38;;;;;;;;;;5015008;28;20045;-80
2023/08/27 06:18:50;;;;;;;19.60;8.75;;;;;;;;;;4990023;28;20046;-79
2023/08/27 06:21:17;;;;;;;9.45;5.30;;;;;;;;;;5011626;28;20057;-82
2023/08/27 06:23:44;;;;;;;9.30;5.28;;;;;;;;;;5006688;28;20066;-80
2023/08/27 06:26:11;;;;;;;11.88;5.35;;;;;;;;;;5010720;28;20045;-80
2023/08/27 06:28:37;;;;;;;6.65;4.45;;;;;;;;;;4992562;28;20057;-81
2023/08/27 06:31:04;;;;;;;8.13;4.90;;;;;;;;;;4985572;28;20061;-81
2023/08/27 06:33:31;;;;;;;8.60;5.05;;;;;;;;;;5001573;28;20617;-80
2023/08/27 06:35:57;;;;;;;8.07;4.97;;;;;;;;;;5004463;28;20049;-82
2023/08/27 06:38:24;;;;;;;7.40;4.60;;;;;;;;;;5005505;28;20038;-80
2023/08/27 06:40:55;;;;;;;7.93;5.03;;;;;;;;;;5001444;28;20111;-80
2023/08/27 06:43:22;;;;;;;11.88;4.63;;;;;;;;;;4993486;28;20060;-81
2023/08/27 06:45:49;;;;;;;9.70;4.95;;;;;;;;;;4996011;28;20046;-78
2023/08/27 06:48:15;;;;;;;8.68;5.45;;;;;;;;;;5020665;28;20053;-82
2023/08/27 06:50:44;;;;;;;10.43;5.35;;;;;;;;;;5003103;28;20540;-80
2023/08/27 06:53:12;;;;;;;9.23;5.68;;;;;;;;;;5008219;28;20061;-80
2023/08/27 06:55:39;;;;;;;10.13;6.15;;;;;;;;;;5001826;28;20738;-81
2023/08/27 06:58:06;;;;;;;8.88;5.88;;;;;;;;;;5001506;28;20060;-81
2023/08/27 07:00:33;;;;;;;10.65;6.25;;;;;;;;;;4999768;28;20438;-81
2023/08/27 07:02:59;;;;;;;9.32;5.55;;;;;;;;;;4999428;28;20060;-81
2023/08/27 07:05:28;;;;;;;10.55;5.97;;;;;;;;;;5017753;28;20076;-77
2023/08/27 07:07:55;;;;;;;14.05;6.32;;;;;;;;;;4997631;28;20107;-79
2023/08/27 07:10:22;;;;;;;12.82;6.07;;;;;;;;;;5010811;28;20062;-78
2023/08/27 07:12:48;;;;;;;11.90;6.63;;;;;;;;;;5003551;28;20073;-77
2023/08/27 07:15:15;;;;;;;10.90;6.13;;;;;;;;;;4995397;28;20049;-80
2023/08/27 07:17:42;;;;;;;12.30;6.38;;;;;;;;;;5000924;28;20074;-80
2023/08/27 07:20:09;;;;;;;13.60;7.13;;;;;;;;;;5002381;28;20045;-80
2023/08/27 07:22:36;;;;;;;13.85;6.75;;;;;;;;;;4997654;28;20101;-79
2023/08/27 07:25:03;;;;;;;8.93;5.85;;;;;;;;;;4985656;28;20066;-80
2023/08/27 07:27:30;;;;;;;8.65;5.82;;;;;;;;;;5001945;28;20054;-79
2023/08/27 07:29:56;;;;;;;8.48;5.50;;;;;;;;;;4976973;28;20053;-81
2023/08/27 07:32:23;;;;;;;10.90;5.97;;;;;;;;;;4995408;28;20096;-80
2023/08/27 07:34:50;;;;;;;9.50;5.45;;;;;;;;;;4977476;28;20041;-79
2023/08/27 07:37:18;;;;;;;7.75;4.72;;;;;;;;;;4981440;28;20042;-80
2023/08/27 07:39:45;;;;;;;9.25;5.53;;;;;;;;;;4982034;28;21353;-79
2023/08/27 07:42:12;;;;;;;11.10;5.30;;;;;;;;;;4995297;28;20045;-80
2023/08/27 07:44:39;;;;;;;9.30;5.10;;;;;;;;;;4982941;28;20046;-80
2023/08/27 07:47:07;;;;;;;9.02;5.32;;;;;;;;;;4968986;28;20405;-80
2023/08/27 07:49:33;;;;;;;8.20;5.28;;;;;;;;;;4981322;28;20052;-78
2023/08/27 07:52:02;;;;;;;9.43;5.57;;;;;;;;;;4981470;28;20688;-78
2023/08/27 07:54:29;;;;;;;10.18;5.43;;;;;;;;;;4997462;28;20828;-78
2023/08/27 07:56:56;;;;;;;9.73;5.50;;;;;;;;;;4999726;28;20049;-80
2023/08/27 07:59:23;;;;;;;7.82;5.38;;;;;;;;;;4985127;28;20623;-80
2023/08/27 08:01:50;;;;;;;11.80;5.55;;;;;;;;;;5001215;28;20100;-82
2023/08/27 08:04:17;;;;;;;8.30;5.30;;;;;;;;;;4999722;28;20057;-79
2023/08/27 08:06:44;;;;;;;11.68;5.63;;;;;;;;;;5003331;28;20296;-80
2023/08/27 08:09:10;;;;;;;8.75;5.07;;;;;;;;;;5001015;28;20038;-78
2023/08/27 08:11:37;;;;;;;9.43;5.05;;;;;;;;;;5005579;28;20109;-79
2023/08/27 08:14:04;;;;;;;8.15;5.18;;;;;;;;;;4987566;28;20050;-80
2023/08/27 08:16:30;;;;;;;7.45;4.57;;;;;;;;;;5005139;28;20049;-78
2023/08/27 08:18:57;;;;;;;10.10;5.10;;;;;;;;;;5020706;28;20046;-78
2023/08/27 08:21:24;;;;;;;9.43;4.90;;;;;;;;;;5002747;28;20056;-79
2023/08/27 08:23:50;;;;;;;11.23;5.20;;;;;;;;;;4998477;28;20060;-79
2023/08/27 08:26:17;;;;;;;8.68;4.95;;;;;;;;;;5012158;28;20041;-82
2023/08/27 08:28:44;;;;;;;12.10;4.75;;;;;;;;;;4996895;28;20642;-80
2023/08/27 08:31:10;;;;;;;7.18;4.57;;;;;;;;;;4999826;28;20116;-80
2023/08/27 08:33:37;;;;;;;9.43;4.47;;;;;;;;;;4999099;28;20450;-78
2023/08/27 08:36:04;;;;;;;9.02;4.60;;;;;;;;;;5019301;28;20048;-80
2023/08/27 08:38:33;;;;;;;10.60;4.25;;;;;;;;;;5005362;28;20046;-79
2023/08/27 08:41:03;;;;;;;6.68;2.85;;;;;;;;;;5008100;28;21662;-79
2023/08/27 08:43:38;;;;;;;5.15;3.22;;;;;;;;;;4990794;28;20058;-79
2023/08/27 08:46:05;;;;;;;6.13;3.08;;;;;;;;;;5017610;28;20045;-79
2023/08/27 08:48:38;;;;;;;10.70;2.85;;;;;;;;;;4995307;28;20049;-80
2023/08/27 08:51:12;;;;;;;6.88;3.28;;;;;;;;;;5015823;28;20122;-79
2023/08/27 08:53:42;;;;;;;8.60;2.90;;;;;;;;;;5013111;28;20641;-79
2023/08/27 08:56:11;;;;;;;5.43;2.30;;;;;;;;;;5011274;28;20093;-79
2023/08/27 08:58:40;;;;;;;7.03;2.85;;;;;;;;;;5006243;28;20061;-81
2023/08/27 09:01:07;;;;;;;6.10;2.83;;;;;;;;;;5004422;28;20061;-82
2023/08/27 09:03:37;;;;;;;4.18;2.80;;;;;;;;;;5008017;28;20072;-84
2023/08/27 09:06:04;;;;;;;5.30;2.53;;;;;;;;;;4992135;28;20057;-78
2023/08/27 09:08:31;;;;;;;7.38;3.03;;;;;;;;;;5003809;28;20092;-77
2023/08/27 09:10:58;;;;;;;6.07;2.90;;;;;;;;;;5001200;28;20057;-77
2023/08/27 09:13:25;;;;;;;6.25;2.78;;;;;;;;;;4987126;28;20128;-77
2023/08/27 09:15:52;;;;;;;7.57;2.67;;;;;;;;;;5002276;28;20045;-81
2023/08/27 09:18:19;;;;;;;5.72;2.70;;;;;;;;;;5002107;28;20049;-81
2023/08/27 09:20:50;;;;;;;5.38;2.50;;;;;;;;;;5002795;28;20575;-80
2023/08/27 09:23:17;;;;;;;6.18;2.20;;;;;;;;;;5006724;28;20053;-79
2023/08/27 09:25:50;;;;;;;4.28;2.28;;;;;;;;;;5009836;28;20045;-80
2023/08/27 09:28:18;;;;;;;4.00;2.08;;;;;;;;;;5004187;28;20080;-79
2023/08/27 09:30:44;;;;;;;6.85;2.40;;;;;;;;;;5006832;28;20049;-81
2023/08/27 09:33:11;;;;;;;4.53;2.35;;;;;;;;;;5008298;28;20155;-80
2023/08/27 09:35:39;;;;;;;4.95;2.50;;;;;;;;;;5011968;28;20050;-78
2023/08/27 09:38:06;;;;;;;6.28;2.10;;;;;;;;;;5013064;28;20053;-79
2023/08/27 09:40:33;;;;;;;7.07;2.20;;;;;;;;;;5012849;28;20069;-78
2023/08/27 09:43:04;;;;;;;5.43;1.92;;;;;;;;;;5012159;28;20048;-79
2023/08/27 09:45:32;;;;;;;5.90;2.28;;;;;;;;;;5014513;28;20057;-80
2023/08/27 09:47:58;;;;;;;4.35;2.22;;;;;;;;;;5012096;28;20109;-77
2023/08/27 09:50:27;;;;;;;3.47;2.00;;;;;;;;;;4982269;28;20057;-80
2023/08/27 09:53:03;;;;;;;5.88;2.00;;;;;;;;;;5008047;28;20070;-79
2023/08/27 09:55:31;;;;;;;4.57;2.33;;;;;;;;;;5003209;28;20053;-80
2023/08/27 09:57:58;;;;;;;9.93;2.47;;;;;;;;;;5010704;28;20049;-80
2023/08/27 10:00:27;;;;;;;4.82;2.00;;;;;;;;;;5011343;28;20042;-80
2023/08/27 10:02:53;;;;;;;4.85;2.30;;;;;;;;;;5012892;28;20132;-80
2023/08/27 10:05:27;;;;;;;5.70;2.50;;;;;;;;;;5007934;28;20053;-79
2023/08/27 10:07:58;;;;;;;6.18;2.63;;;;;;;;;;5002785;28;20044;-79
2023/08/27 10:10:25;;;;;;;5.45;2.65;;;;;;;;;;5010142;28;20049;-80
2023/08/27 10:12:53;;;;;;;5.75;2.58;;;;;;;;;;4997509;28;20034;-78
2023/08/27 10:15:21;;;;;;;7.05;2.70;;;;;;;;;;5019200;28;20060;-79
2023/08/27 10:17:49;;;;;;;6.82;3.00;;;;;;;;;;4986357;28;20073;-78
2023/08/27 10:20:16;;;;;;;4.03;2.38;;;;;;;;;;5000930;28;20040;-78
2023/08/27 10:22:44;;;;;;;4.93;2.30;;;;;;;;;;5007584;28;20041;-78
2023/08/27 10:25:12;;;;;;;5.50;2.70;;;;;;;;;;5002212;28;20081;-79
2023/08/27 10:27:39;;;;;;;6.25;2.53;;;;;;;;;;5006090;28;20037;-80
2023/08/27 10:30:07;;;;;;;5.93;2.80;;;;;;;;;;4989374;28;20096;-79
2023/08/27 10:32:34;;;;;;;9.27;3.20;;;;;;;;;;5009933;28;20053;-78
2023/08/27 10:35:05;;;;;;;6.10;3.60;;;;;;;;;;5005542;28;20050;-78
2023/08/27 10:37:33;;;;;;;6.30;3.40;;;;;;;;;;5009512;28;20045;-77
2023/08/27 10:40:00;;;;;;;6.70;3.70;;;;;;;;;;5001378;28;20046;-78
2023/08/27 10:42:31;;;;;;;8.57;3.55;;;;;;;;;;4999192;28;20460;-78
2023/08/27 10:45:11;;;;;;;7.55;3.72;;;;;;;;;;5006192;28;20042;-77
2023/08/27 10:47:37;;;;;;;8.55;4.47;;;;;;;;;;4986981;28;20520;-79
2023/08/27 10:50:04;;;;;;;10.20;4.13;;;;;;;;;;4970242;28;20053;-79
2023/08/27 10:52:46;;;;;;;7.38;4.25;;;;;;;;;;4989115;28;20050;-78
2023/08/27 10:55:13;;;;;;;8.25;5.10;;;;;;;;;;4984965;28;20061;-77
2023/08/27 10:57:40;;;;;;;7.85;3.97;;;;;;;;;;5000188;28;20077;-77
2023/08/27 11:00:12;;;;;;;5.93;4.05;;;;;;;;;;5001868;28;20703;-79
2023/08/27 11:02:56;;;;;;;7.90;4.47;;;;;;;;;;5000319;28;20049;-78
2023/08/27 11:05:27;;;;;;;8.77;4.55;;;;;;;;;;4982482;28;20620;-77
2023/08/27 11:08:01;;;;;;;7.72;4.57;;;;;;;;;;4982686;28;21939;-78
2023/08/27 11:10:31;;;;;;;9.15;4.85;;;;;;;;;;4986506;28;20843;-79
2023/08/27 11:12:58;;;;;;;8.50;4.90;;;;;;;;;;4988032;28;20038;-77
2023/08/27 11:15:31;;;;;;;11.80;5.00;;;;;;;;;;5006324;28;20427;-78
2023/08/27 11:17:59;;;;;;;12.95;5.45;;;;;;;;;;5000784;28;20451;-76
2023/08/27 11:20:27;;;;;;;10.18;5.68;;;;;;;;;;4991524;28;20073;-81
2023/08/27 11:23:01;;;;;;;10.45;5.88;;;;;;;;;;5013146;28;20053;-80
2023/08/27 11:25:29;;;;;;;11.93;6.00;;;;;;;;;;5002542;28;21262;-79
2023/08/27 11:28:00;;;;;;;11.75;6.03;;;;;;;;;;4992855;28;20065;-80
2023/08/27 11:30:28;;;;;;;13.27;5.15;;;;;;;;;;5002866;28;20511;-77
2023/08/27 11:32:56;;;;;;;7.82;5.20;;;;;;;;;;5011727;28;20046;-82
2023/08/27 11:35:26;;;;;;;8.65;4.95;;;;;;;;;;5009207;28;20046;-79
2023/08/27 11:37:54;;;;;;;9.52;4.30;;;;;;;;;;5010343;28;20436;-79
2023/08/27 11:40:23;;;;;;;9.80;4.38;;;;;;;;;;4983888;28;20432;-79
2023/08/27 11:42:50;;;;;;;4.25;2.47;;;;;;;;;;5016074;28;20045;-79
2023/08/27 11:45:17;;;;;;;7.22;2.70;;;;;;;;;;4999343;28;20049;-79
2023/08/27 11:47:44;;;;;;;5.38;2.70;;;;;;;;;;5001596;28;20093;-79
2023/08/27 11:50:11;;;;;;;7.15;2.55;;;;;;;;;;4999239;28;20057;-77
2023/08/27 11:52:38;;;;;;;4.45;2.65;;;;;;;;;;4986933;28;20069;-79
2023/08/27 11:55:06;;;;;;;6.47;2.40;;;;;;;;;;4998883;28;20882;-79
2023/08/27 11:57:34;;;;;;;5.90;2.70;;;;;;;;;;5000237;28;20054;-79
2023/08/27 12:00:10;;;;;;;9.70;2.80;;;;;;;;;;4999670;28;20141;-81
2023/08/27 12:02:38;;;;;;;4.22;2.60;;;;;;;;;;4982762;28;20053;-79
2023/08/27 12:05:08;;;;;;;7.03;2.72;;;;;;;;;;5003260;28;20053;-81
2023/08/27 12:07:35;;;;;;;4.22;2.55;;;;;;;;;;5002471;28;20057;-80
2023/08/27 12:10:11;;;;;;;6.20;2.90;;;;;;;;;;4998791;28;20528;-81
2023/08/27 12:12:38;;;;;;;6.95;2.70;;;;;;;;;;5003773;28;20096;-80
2023/08/27 12:15:05;;;;;;;4.63;2.67;;;;;;;;;;4997680;28;20054;-79
2023/08/27 12:17:33;;;;;;;4.78;2.88;;;;;;;;;;5004959;28;20178;-78
2023/08/27 12:20:01;;;;;;;7.40;2.63;;;;;;;;;;5006188;28;20658;-79
2023/08/27 12:22:27;;;;;;;7.68;3.30;;;;;;;;;;5004132;28;20046;-77
2023/08/27 12:24:58;;;;;;;6.53;2.53;;;;;;;;;;5002968;28;20685;-77
2023/08/27 12:27:25;;;;;;;5.53;2.45;;;;;;;;;;4966211;28;20111;-78
2023/08/27 12:29:52;;;;;;;4.32;2.25;;;;;;;;;;5006062;28;20494;-78
2023/08/27 12:32:21;;;;;;;3.55;1.77;;;;;;;;;;5003799;28;20049;-77
2023/08/27 12:34:47;;;;;;;4.43;1.40;;;;;;;;;;4991202;28;20042;-77
2023/08/27 12:37:17;;;;;;;4.20;1.10;;;;;;;;;;4977474;28;20053;-79
2023/08/27 12:39:45;;;;;;;2.95;1.10;;;;;;;;;;4984016;28;20038;-80
2023/08/27 12:42:12;;;;;;;2.15;1.00;;;;;;;;;;5004603;28;20053;-80
2023/08/27 12:44:38;;;;;;;2.55;1.20;;;;;;;;;;5011192;28;20053;-78
2023/08/27 12:47:08;;;;;;;5.68;1.30;;;;;;;;;;5009860;28;20052;-80
2023/08/27 12:49:36;;;;;;;3.33;1.60;;;;;;;;;;5002971;28;20042;-80
2023/08/27 12:52:04;;;;;;;1.92;1.17;;;;;;;;;;4998495;28;20410;-77
2023/08/27 12:54:31;;;;;;;2.97;1.20;;;;;;;;;;4998317;28;20058;-81
2023/08/27 12:56:59;;;;;;;6.65;1.45;;;;;;;;;;4986714;28;20072;-80
2023/08/27 12:59:25;;;;;;;4.85;1.50;;;;;;;;;;4986432;28;20054;-78
2023/08/27 13:01:53;;;;;;;2.85;1.33;;;;;;;;;;4996004;28;20046;-80
2023/08/27 13:04:22;;;;;;;6.38;1.60;;;;;;;;;;5022835;28;20038;-79
2023/08/27 13:06:48;;;;;;;3.13;1.38;;;;;;;;;;5007344;28;20054;-79
2023/08/27 13:09:18;;;;;;;4.05;1.30;;;;;;;;;;5024678;28;20532;-79
2023/08/27 13:11:45;;;;;;;4.28;1.40;;;;;;;;;;5011363;28;20050;-85
2023/08/27 13:14:11;;;;;;;2.95;1.45;;;;;;;;;;5025595;28;20048;-82
2023/08/27 13:16:38;;;;;;;3.53;1.40;;;;;;;;;;5001226;28;20053;-82
2023/08/27 13:19:06;;;;;;;2.05;1.40;;;;;;;;;;5019347;28;20054;-83
2023/08/27 13:21:33;;;;;;;2.17;1.38;;;;;;;;;;5020347;28;20109;-82
2023/08/27 13:24:03;;;;;;;4.00;1.40;;;;;;;;;;5016915;28;20053;-83
2023/08/27 13:26:30;;;;;;;3.75;1.65;;;;;;;;;;5003562;28;20120;-82
2023/08/27 13:28:56;;;;;;;3.13;1.42;;;;;;;;;;4989237;28;20046;-81
2023/08/27 13:31:23;;;;;;;3.38;1.63;;;;;;;;;;4989988;28;20054;-81
2023/08/27 13:33:50;;;;;;;3.38;1.60;;;;;;;;;;4987160;28;20053;-83
2023/08/27 13:36:17;;;;;;;2.47;1.58;;;;;;;;;;5006602;28;20046;-79
2023/08/27 13:38:44;;;;;;;4.88;1.65;;;;;;;;;;4990466;28;20471;-80
2023/08/27 13:41:10;;;;;;;7.10;1.63;;;;;;;;;;4988223;28;20038;-80
2023/08/27 13:43:37;;;;;;;4.40;1.67;;;;;;;;;;5022959;28;20046;-81
2023/08/27 13:46:04;;;;;;;2.92;1.70;;;;;;;;;;5005808;28;20491;-82
2023/08/27 13:48:31;;;;;;;2.38;1.40;;;;;;;;;;5011001;28;20690;-83
2023/08/27 13:50:58;;;;;;;3.33;1.45;;;;;;;;;;5008586;28;20064;-80
2023/08/27 13:53:24;;;;;;;4.10;1.30;;;;;;;;;;5007708;28;20057;-84
2023/08/27 13:55:51;;;;;;;2.67;1.35;;;;;;;;;;4997975;28;20033;-82
2023/08/27 13:58:19;;;;;;;3.72;1.63;;;;;;;;;;5011912;28;20531;-83
2023/08/27 14:00:46;;;;;;;3.90;1.70;;;;;;;;;;5015209;28;20042;-83
2023/08/27 14:03:12;;;;;;;2.97;1.60;;;;;;;;;;5024380;28;20046;-79
2023/08/27 14:05:42;;;;;;;4.30;1.67;;;;;;;;;;4992208;28;20054;-81
2023/08/27 14:08:09;;;;;;;2.60;1.45;;;;;;;;;;5005668;28;20223;-81
2023/08/27 14:10:37;;;;;;;2.15;1.70;;;;;;;;;;4987913;28;20050;-82
2023/08/27 14:13:05;;;;;;;3.25;1.55;;;;;;;;;;5004304;28;20431;-82
2023/08/27 14:15:31;;;;;;;6.47;1.80;;;;;;;;;;5007564;28;20054;-78
2023/08/27 14:17:58;;;;;;;3.85;1.60;;;;;;;;;;4987399;28;20057;-77
2023/08/27 14:20:25;;;;;;;4.85;1.80;;;;;;;;;;5000136;28;20053;-79
2023/08/27 14:22:52;;;;;;;2.30;1.50;;;;;;;;;;4988063;28;20468;-79
2023/08/27 14:25:19;;;;;;;4.22;2.00;;;;;;;;;;5003535;28;20049;-79
2023/08/27 14:27:45;;;;;;;2.30;1.40;;;;;;;;;;5015085;28;20055;-80
2023/08/27 14:30:12;;;;;;;3.15;1.67;;;;;;;;;;5002431;28;20578;-79
2023/08/27 14:32:39;;;;;;;3.65;1.63;;;;;;;;;;4996020;28;20042;-80
2023/08/27 14:35:06;;;;;;;4.45;1.85;;;;;;;;;;5006917;28;20054;-77
2023/08/27 14:37:33;;;;;;;5.30;1.40;;;;;;;;;;5000547;28;20057;-81
2023/08/27 14:40:00;;;;;;;3.35;1.40;;;;;;;;;;5005816;28;20533;-81